Whiskey Trio — 3ETD3 — position and weather

sailwx.info

Track history (hours):
 
Tides and Currents Weather Stations Pressure Air Temp Water Temp Dewpoint Dewpoint Depression Visibility Wind Speed Wind Dir Waves Ship Positions

Whiskey Trio

Last reported at 2018-May-16 21:30 UTC. Time now 2018-May-25 18:55 UTC.
Position N 09°56' W 015°10'.
Warning: this ship's position is 8 days out of date.

Length 89 m; draft 4.8 m.

Type: Cargo ship. MMSI: 353502000.

Date/timePositionNaut miles runAvg speedWind from/ knotsBaromVisibWave heightAir tempDewpointWater temp
2018-May-16 21:30N 09°56' W 015°10'24 7.9
2018-May-16 18:28N 09°44' W 014°49'4 7.8
2018-May-16 18:00N 09°42' W 014°46'4 7.7
2018-May-16 17:30N 09°40' W 014°43'6 7.7
2018-May-16 16:47N 09°37' W 014°38'2 8.0
2018-May-16 16:30N 09°35' W 014°36'25 8.0
2018-May-16 13:24N 09°26' W 014°13'4 8.0
2018-May-16 12:57N 09°26' W 014°09'4 8.2
2018-May-16 12:30N 09°25' W 014°06'9 7.8
2018-May-16 11:24N 09°21' W 013°58'3 7.8
2018-May-16 10:59N 09°20' W 013°55'4 7.8
2018-May-16 10:31N 09°19' W 013°51'15 1.4
2018-May-16 00:06N 09°31' W 013°43'0 0.1
2018-May-16 00:00N 09°31' W 013°43'0 0.0
2018-May-15 23:30N 09°31' W 013°43'0 0.0
2018-May-15 23:00N 09°31' W 013°43'0 0.0
2018-May-15 22:27N 09°31' W 013°43'0 0.0
2018-May-15 22:00N 09°31' W 013°43'0 0.0
2018-May-15 21:30N 09°31' W 013°43'0 0.0
2018-May-15 18:42N 09°31' W 013°43'0 0.0
2018-May-15 18:30N 09°31' W 013°43'0 0.0
2018-May-15 18:00N 09°31' W 013°43'0 0.0
2018-May-15 17:30N 09°31' W 013°43'0 0.0
2018-May-15 17:00N 09°31' W 013°43'0 0.0
2018-May-15 16:30N 09°31' W 013°43'0 0.0
2018-May-15 16:00N 09°31' W 013°43'0 0.0
2018-May-15 15:30N 09°31' W 013°43'0 0.0
2018-May-15 15:00N 09°31' W 013°43'0 0.0
2018-May-15 13:20N 09°31' W 013°43'0 0.1
2018-May-15 13:00N 09°31' W 013°43'1 1.7
2018-May-15 12:31N 09°30' W 013°44'2 4.7
2018-May-15 12:00N 09°28' W 013°43'2 3.1
2018-May-15 11:30N 09°26' W 013°44'0 0.6
2018-May-15 11:01N 09°26' W 013°43'1 1.4
2018-May-15 10:30N 09°26' W 013°43'2 4.5
2018-May-15 10:00N 09°23' W 013°43'2 3.6
2018-May-15 09:30N 09°22' W 013°45'3 6.8
2018-May-15 09:00N 09°20' W 013°47'4 7.2
2018-May-15 08:30N 09°18' W 013°50'4 7.4
2018-May-15 07:59N 09°16' W 013°54'4 7.4
2018-May-15 07:28N 09°14' W 013°57'3 7.1
2018-May-15 06:59N 09°14' W 014°00'5 7.1
2018-May-15 06:17N 09°15' W 014°05'9 7.2
2018-May-15 05:02N 09°16' W 014°15'2 7.2
2018-May-15 04:48N 09°16' W 014°16'2 7.2
2018-May-15 04:30N 09°16' W 014°18'4 7.2
2018-May-15 03:58N 09°17' W 014°22'5 7.0
2018-May-15 03:14N 09°17' W 014°27'8 6.7
2018-May-15 02:07N 09°16' W 014°35'1 6.3
2018-May-15 02:00N 09°16' W 014°36'3 6.2
2018-May-15 01:30N 09°16' W 014°39'3 6.1
2018-May-15 01:00N 09°16' W 014°42'3 5.9
2018-May-15 00:30N 09°16' W 014°45'3 6.0
2018-May-15 00:00N 09°17' W 014°48'3 6.0
2018-May-14 23:30N 09°17' W 014°51'3 6.0
2018-May-14 23:00N 09°18' W 014°54'3 6.1
2018-May-14 22:30N 09°18' W 014°57'5 6.1
2018-May-14 21:40N 09°19' W 015°02'3 6.2
2018-May-14 21:12N 09°20' W 015°05'1 6.3
2018-May-14 21:00N 09°20' W 015°06'6 6.2
2018-May-14 20:07N 09°21' W 015°12'1 6.2
2018-May-14 20:00N 09°21' W 015°12'3 6.2
2018-May-14 19:30N 09°22' W 015°16'3 6.4
2018-May-14 18:59N 09°23' W 015°19'18 7.7
2018-May-14 16:41N 09°26' W 015°36'2 8.1
2018-May-14 16:30N 09°26' W 015°38'4 8.1
2018-May-14 16:00N 09°25' W 015°42'5 7.9
2018-May-14 15:21N 09°25' W 015°47'3 7.8
2018-May-14 15:00N 09°25' W 015°50'4 7.6
2018-May-14 14:30N 09°25' W 015°54'4 7.6
2018-May-14 14:00N 09°25' W 015°58'4 7.4
2018-May-14 13:30N 09°25' W 016°01'5 7.3
2018-May-14 12:53N 09°25' W 016°06'  
Track history (hours):
 
Tides and Currents Weather Stations Pressure Air Temp Water Temp Dewpoint Dewpoint Depression Visibility Wind Speed Wind Dir Waves Ship Positions

Whiskey Trio

Last reported at 2018-May-16 21:30 UTC. Time now 2018-May-25 18:55 UTC.
Position N 09°56' W 015°10'.
Warning: this ship's position is 8 days out of date.

Length 89 m; draft 4.8 m.

Type: Cargo ship. MMSI: 353502000.

Date/timePositionNaut miles runAvg speedWind from/ knotsBaromVisibWave heightAir tempDewpointWater temp
2018-May-16 21:30N 09°56' W 015°10'24 7.9
2018-May-16 18:28N 09°44' W 014°49'4 7.8
2018-May-16 18:00N 09°42' W 014°46'4 7.7
2018-May-16 17:30N 09°40' W 014°43'6 7.7
2018-May-16 16:47N 09°37' W 014°38'2 8.0
2018-May-16 16:30N 09°35' W 014°36'25 8.0
2018-May-16 13:24N 09°26' W 014°13'4 8.0
2018-May-16 12:57N 09°26' W 014°09'4 8.2
2018-May-16 12:30N 09°25' W 014°06'9 7.8
2018-May-16 11:24N 09°21' W 013°58'3 7.8
2018-May-16 10:59N 09°20' W 013°55'4 7.8
2018-May-16 10:31N 09°19' W 013°51'15 1.4
2018-May-16 00:06N 09°31' W 013°43'0 0.1
2018-May-16 00:00N 09°31' W 013°43'0 0.0
2018-May-15 23:30N 09°31' W 013°43'0 0.0
2018-May-15 23:00N 09°31' W 013°43'0 0.0
2018-May-15 22:27N 09°31' W 013°43'0 0.0
2018-May-15 22:00N 09°31' W 013°43'0 0.0
2018-May-15 21:30N 09°31' W 013°43'0 0.0
2018-May-15 18:42N 09°31' W 013°43'0 0.0
2018-May-15 18:30N 09°31' W 013°43'0 0.0
2018-May-15 18:00N 09°31' W 013°43'0 0.0
2018-May-15 17:30N 09°31' W 013°43'0 0.0
2018-May-15 17:00N 09°31' W 013°43'0 0.0
2018-May-15 16:30N 09°31' W 013°43'0 0.0
2018-May-15 16:00N 09°31' W 013°43'0 0.0
2018-May-15 15:30N 09°31' W 013°43'0 0.0
2018-May-15 15:00N 09°31' W 013°43'0 0.0
2018-May-15 13:20N 09°31' W 013°43'0 0.1
2018-May-15 13:00N 09°31' W 013°43'1 1.7
2018-May-15 12:31N 09°30' W 013°44'2 4.7
2018-May-15 12:00N 09°28' W 013°43'2 3.1
2018-May-15 11:30N 09°26' W 013°44'0 0.6
2018-May-15 11:01N 09°26' W 013°43'1 1.4
2018-May-15 10:30N 09°26' W 013°43'2 4.5
2018-May-15 10:00N 09°23' W 013°43'2 3.6
2018-May-15 09:30N 09°22' W 013°45'3 6.8
2018-May-15 09:00N 09°20' W 013°47'4 7.2
2018-May-15 08:30N 09°18' W 013°50'4 7.4
2018-May-15 07:59N 09°16' W 013°54'4 7.4
2018-May-15 07:28N 09°14' W 013°57'3 7.1
2018-May-15 06:59N 09°14' W 014°00'5 7.1
2018-May-15 06:17N 09°15' W 014°05'9 7.2
2018-May-15 05:02N 09°16' W 014°15'2 7.2
2018-May-15 04:48N 09°16' W 014°16'2 7.2
2018-May-15 04:30N 09°16' W 014°18'4 7.2
2018-May-15 03:58N 09°17' W 014°22'5 7.0
2018-May-15 03:14N 09°17' W 014°27'8 6.7
2018-May-15 02:07N 09°16' W 014°35'1 6.3
2018-May-15 02:00N 09°16' W 014°36'3 6.2
2018-May-15 01:30N 09°16' W 014°39'3 6.1
2018-May-15 01:00N 09°16' W 014°42'3 5.9
2018-May-15 00:30N 09°16' W 014°45'3 6.0
2018-May-15 00:00N 09°17' W 014°48'3 6.0
2018-May-14 23:30N 09°17' W 014°51'3 6.0
2018-May-14 23:00N 09°18' W 014°54'3 6.1
2018-May-14 22:30N 09°18' W 014°57'5 6.1
2018-May-14 21:40N 09°19' W 015°02'3 6.2
2018-May-14 21:12N 09°20' W 015°05'1 6.3
2018-May-14 21:00N 09°20' W 015°06'6 6.2
2018-May-14 20:07N 09°21' W 015°12'1 6.2
2018-May-14 20:00N 09°21' W 015°12'3 6.2
2018-May-14 19:30N 09°22' W 015°16'3 6.4
2018-May-14 18:59N 09°23' W 015°19'18 7.7
2018-May-14 16:41N 09°26' W 015°36'2 8.1
2018-May-14 16:30N 09°26' W 015°38'4 8.1
2018-May-14 16:00N 09°25' W 015°42'5 7.9
2018-May-14 15:21N 09°25' W 015°47'3 7.8
2018-May-14 15:00N 09°25' W 015°50'4 7.6
2018-May-14 14:30N 09°25' W 015°54'4 7.6
2018-May-14 14:00N 09°25' W 015°58'4 7.4
2018-May-14 13:30N 09°25' W 016°01'5 7.3
2018-May-14 12:53N 09°25' W 016°06'  

Dump ship's entire track history